Latest Weather Observations for Bega

IDN60801

Issued at 11:02 pm EST Wednesday 16 August 2017 (issued every 30 minutes, with the page automatically refreshed every 10 minutes)

About weather observations | Map of weather stations | Latest weather observations for NSW | Other Formats
Station Details ID: 069139 Name: BEGA AWS Lat: -36.67 Lon: 149.82 Height: 41.0 m
Data from the previous 72 hours. | See also: Recent months at Bega
Date/Time
EST
Temp
°C
App
Temp
°C
Dew
Point
°C
Rel
Hum
%
Delta-T
°C
Wind Press
QNH
hPa
Press
MSL
hPa
Rain since
9am
mm
Dir  Spd
km/h
Gust
km/h
Spd
kts
Gust
kts
16/11:00pm 15.3 8.3 2.1 41 5.9 W 28 48 15 26 1003.1 1003.1 0.0
16/10:30pm 15.4 8.4 2.2 41 5.9 W 28 52 15 28 1003.0 1003.0 0.0
16/10:26pm 15.4 8.4 1.9 40 6.0 W 28 52 15 28 1003.0 1003.0 0.0
16/10:00pm 15.4 8.7 1.5 39 6.1 W 26 43 14 23 1003.1 1003.1 0.0
16/09:30pm 15.0 9.5 1.9 41 5.8 W 20 41 11 22 1003.2 1003.2 0.0
16/09:00pm 14.9 8.7 2.1 42 5.7 WSW 24 41 13 22 1003.2 1003.2 0.0
16/08:45pm 15.0 8.0 2.2 42 5.7 W 28 48 15 26 1003.2 1003.2 0.0
16/08:30pm 14.9 9.1 2.1 42 5.7 W 22 39 12 21 1003.3 1003.3 0.0
16/08:00pm 14.7 8.9 2.3 43 5.5 WSW 22 35 12 19 1003.2 1003.2 0.0
16/07:30pm 14.9 9.6 2.1 42 5.7 W 19 30 10 16 1002.8 1002.8 0.0
16/07:00pm 15.0 9.7 1.9 41 5.8 WSW 19 32 10 17 1002.6 1002.6 0.0
16/06:30pm 15.2 9.9 2.1 41 5.8 W 19 30 10 16 1002.1 1002.1 0.0
16/06:00pm 15.8 9.9 1.9 39 6.2 W 22 39 12 21 1001.5 1001.5 0.0
16/05:30pm 16.1 10.6 1.8 38 6.3 W 20 33 11 18 1001.0 1001.0 0.0
16/05:00pm 16.6 11.0 1.5 36 6.7 WNW 20 35 11 19 1000.3 1000.3 0.0
16/04:30pm 17.7 10.5 0.8 32 7.4 WNW 28 52 15 28 999.3 999.3 0.0
16/04:00pm 18.5 11.3 0.6 30 8.0 WNW 28 48 15 26 998.6 998.6 0.0
16/03:45pm 18.8 11.6 0.4 29 8.1 W 28 48 15 26 998.3 998.3 0.0
16/03:30pm 18.8 11.6 0.9 30 8.0 W 28 44 15 24 998.0 998.0 0.0
16/03:05pm 19.3 11.7 0.8 29 8.3 W 30 48 16 26 997.6 997.6 0.0
16/03:00pm 19.3 12.9 0.8 29 8.3 W 24 43 13 23 997.6 997.6 0.0
16/02:47pm 19.4 12.2 0.9 29 8.3 W 28 57 15 31 997.2 997.2 0.0
16/02:30pm 19.4 11.6 1.4 30 8.1 W 32 48 17 26 997.1 997.1 0.0
16/02:02pm 19.5 11.7 1.5 30 8.2 WNW 32 52 17 28 996.6 996.6 0.0
16/02:00pm 19.6 11.8 2.0 31 8.1 WNW 32 44 17 24 996.6 996.6 0.0
16/01:30pm 19.7 12.7 2.1 31 8.1 W 28 43 15 23 996.4 996.4 0.0
16/01:05pm 19.3 11.7 2.6 33 7.7 W 32 50 17 27 996.1 996.1 0.0
16/01:00pm 19.5 11.2 2.4 32 8.0 W 35 50 19 27 996.0 996.0 0.0
16/12:39pm 20.1 13.2 2.5 31 8.2 WNW 28 54 15 29 996.0 996.0 0.0
16/12:30pm 19.7 13.6 3.0 33 7.8 WNW 24 35 13 19 995.9 995.9 0.0
16/12:14pm 19.2 12.3 2.6 33 7.7 W 28 46 15 25 995.7 995.7 0.0
16/12:00pm 19.2 11.8 2.1 32 7.9 W 30 46 16 25 995.6 995.6 0.0
16/11:30am 18.9 11.1 2.7 34 7.5 WNW 33 56 18 30 996.0 996.0 0.0
16/11:03am 18.7 11.9 2.9 35 7.3 W 28 54 15 29 995.9 995.9 0.0
16/11:00am 18.6 11.8 2.9 35 7.3 W 28 43 15 23 995.9 995.9 0.0
16/10:30am 18.0 9.8 2.7 36 7.0 W 35 61 19 33 995.8 995.8 0.0
16/10:03am 17.7 10.0 2.5 36 6.9 W 32 52 17 28 995.8 995.8 0.0
16/10:00am 17.6 10.0 2.8 37 6.9 W 32 46 17 25 995.9 995.9 0.0
16/09:30am 17.7 11.0 3.9 40 6.5 W 28 50 15 27 995.8 995.8 0.0
16/09:00am 17.4 11.2 6.3 48 5.5 WNW 28 46 15 25 995.2 995.2 0.0
16/08:55am 17.3 11.1 6.2 48 5.4 WNW 28 46 15 25 995.3 995.3 0.0
16/08:30am 17.4 12.3 6.0 47 5.6 W 22 41 12 22 995.6 995.6 0.0
16/08:00am 17.4 11.2 6.0 47 5.6 WNW 28 48 15 26 994.9 994.9 0.0
16/07:54am 17.5 12.0 5.8 46 5.7 WNW 24 48 13 26 994.9 994.9 0.0
16/07:30am 16.5 12.8 6.3 51 5.0 NW 15 26 8 14 994.3 994.3 0.0
16/07:00am 17.3 11.8 5.9 47 5.6 WNW 24 41 13 22 993.7 993.7 0.0
16/06:30am 17.7 13.0 5.9 46 5.8 WNW 20 43 11 23 994.3 994.3 0.0
16/06:00am 17.7 13.2 5.9 46 5.8 NW 19 32 10 17 993.4 993.4 0.0
16/05:30am 18.1 13.0 6.0 45 5.9 WNW 22 35 12 19 993.7 993.7 0.0
16/05:00am 17.5 14.8 7.3 51 5.2 NNW 11 20 6 11 993.8 993.8 0.0
16/04:30am 18.0 15.9 8.3 53 5.0 NW 9 17 5 9 994.3 994.3 0.0
16/04:00am 18.3 15.9 8.8 54 5.0 W 11 17 6 9 994.4 994.4 0.0
16/03:30am 17.6 15.6 8.7 56 4.6 SW 9 15 5 8 994.8 994.8 0.0
16/03:00am 16.6 15.5 8.3 58 4.3 NNE 4 7 2 4 994.9 994.9 0.0
16/02:30am 17.0 15.4 8.7 58 4.3 NE 7 9 4 5 995.2 995.2 0.0
16/02:00am 17.1 15.0 8.3 56 4.5 E 9 13 5 7 995.9 995.9 0.0
16/01:30am 18.6 16.4 7.7 49 5.6 N 9 15 5 8 996.4 996.4 0.0
16/01:00am 20.5 17.6 8.2 45 6.5 NW 13 24 7 13 997.0 997.0 0.0
16/12:30am 20.5 17.1 7.8 44 6.6 WNW 15 28 8 15 997.2 997.2 0.0
16/12:00am 21.2 15.4 7.8 42 7.0 WNW 28 43 15 23 998.1 998.1 0.0
 
Date/Time
EST
Temp
°C
App
Temp
°C
Dew
Point
°C
Rel
Hum
%
Delta-T
°C
Wind Press
QNH
hPa
Press
MSL
hPa
Rain since
9am
mm
Dir  Spd
km/h
Gust
km/h
Spd
kts
Gust
kts
15/11:30pm 21.3 15.5 7.9 42 7.0 W 28 52 15 28 998.5 998.5 0.0
15/11:02pm 21.7 15.9 7.9 41 7.2 WNW 28 54 15 29 998.7 998.7 0.0
15/11:00pm 21.6 16.2 7.8 41 7.2 WNW 26 43 14 23 998.9 998.9 0.0
15/10:56pm 21.5 15.6 7.7 41 7.2 WNW 28 44 15 24 998.7 998.7 0.0
15/10:32pm 20.4 17.0 9.3 49 5.9 N 17 61 9 33 998.8 998.8 0.0
15/10:30pm 15.6 13.1 9.7 68 3.1 N 13 30 7 16 999.2 999.2 0.0
15/10:00pm 17.2 15.9 11.2 68 3.3 W 9 33 5 18 999.7 999.7 0.0
15/09:30pm 12.9 11.5 10.8 87 1.1 S 9 17 5 9 1000.6 1000.6 0.0
15/09:00pm 12.3 10.9 10.9 91 0.7 SSW 9 13 5 7 1000.9 1000.9 0.0
15/08:30pm 12.3 11.8 10.9 91 0.7 SSW 4 15 2 8 1001.2 1001.2 0.0
15/08:00pm 12.9 12.5 11.0 88 1.0 WSW 4 11 2 6 1001.4 1001.4 0.0
15/07:30pm 12.5 12.4 10.9 90 0.8 NE 2 7 1 4 1001.8 1001.8 0.0
15/07:00pm 12.9 12.4 10.8 87 1.1 SW 4 7 2 4 1002.1 1002.1 0.0
15/06:30pm 13.1 12.1 11.0 87 1.1 SW 7 11 4 6 1002.3 1002.3 0.0
15/06:00pm 13.0 12.9 10.9 87 1.1 NNE 2 7 1 4 1002.0 1002.0 0.0
15/05:30pm 13.7 14.1 11.2 85 1.3 CALM 0 0 0 0 1002.6 1002.6 0.0
15/05:00pm 14.1 12.8 11.4 84 1.4 NNW 9 15 5 8 1002.7 1002.7 0.0
15/04:30pm 14.5 14.8 10.9 79 1.9 CALM 0 0 0 0 1002.7 1002.7 0.0
15/04:00pm 14.7 13.6 10.7 77 2.1 SSW 7 13 4 7 1002.7 1002.7 0.0
15/03:30pm 15.2 14.3 10.6 74 2.4 SSW 6 11 3 6 1003.2 1003.2 0.0
15/03:00pm 15.9 15.1 10.9 72 2.7 SW 6 7 3 4 1003.5 1003.5 0.0
15/02:30pm 15.1 15.3 10.5 74 2.4 CALM 0 0 0 0 1003.3 1003.3 0.0
15/02:00pm 14.4 14.0 9.8 74 2.4 SW 2 6 1 3 1003.1 1003.1 0.0
15/01:30pm 13.9 13.9 9.7 76 2.2 CALM 0 0 0 0 1003.6 1003.6 0.0
15/01:00pm 13.6 12.8 9.8 78 2.0 SE 4 9 2 5 1004.3 1004.3 0.0
15/12:30pm 12.3 11.4 9.1 81 1.6 E 4 6 2 3 1005.5 1005.6 0.0
15/12:00pm 11.2 9.6 8.8 85 1.2 NNE 7 9 4 5 1006.8 1006.9 0.0
15/11:30am 9.8 9.1 8.6 92 0.6 WNW 2 7 1 4 1008.1 1008.2 0.0
15/11:00am 8.7 7.7 7.2 90 0.7 SSE 2 7 1 4 1008.9 1009.0 0.0
15/10:30am 8.2 6.1 6.5 89 0.8 SSW 7 11 4 6 1009.6 1009.7 0.0
15/10:00am 7.7 6.8 6.2 90 0.7 CALM 0 2 0 1 1009.8 1009.9 0.0
15/09:30am 7.2 6.2 5.7 90 0.7 CALM 0 0 0 0 1010.4 1010.5 0.0
15/09:00am 6.7 5.6 5.2 90 0.7 CALM 0 0 0 0 1011.2 1011.3 0.0
15/08:30am 6.3 4.9 5.3 93 0.4 N 2 7 1 4 1011.4 1011.5 0.0
15/08:00am 4.6 3.2 3.7 94 0.4 CALM 0 0 0 0 1011.7 1011.8 0.0
15/07:30am 3.9 2.4 3.2 95 0.3 CALM 0 0 0 0 1011.9 1012.0 0.0
15/07:00am 2.4 0.7 1.8 96 0.2 CALM 0 0 0 0 1011.8 1011.9 0.0
15/06:30am 2.0 -0.6 0.8 92 0.5 N 4 9 2 5 1012.2 1012.3 0.0
15/06:00am 2.4 0.6 1.5 94 0.3 CALM 0 6 0 3 1011.8 1011.9 0.0
15/05:30am 3.4 1.9 3.0 97 0.2 CALM 0 0 0 0 1011.9 1012.0 0.0
15/05:00am 2.1 0.3 1.4 95 0.3 CALM 0 0 0 0 1012.1 1012.2 0.0
15/04:30am 3.0 0.9 2.0 93 0.4 N 2 6 1 3 1012.4 1012.5 0.0
15/04:00am 3.6 1.0 3.0 96 0.2 SSW 6 9 3 5 1012.2 1012.3 0.0
15/03:30am 3.0 1.3 2.0 93 0.4 CALM 0 2 0 1 1012.4 1012.5 0.0
15/03:00am 5.2 3.8 3.4 88 0.7 CALM 0 0 0 0 1012.4 1012.5 0.0
15/02:30am 4.7 3.3 3.4 91 0.5 CALM 0 0 0 0 1012.8 1012.9 0.0
15/02:00am 5.5 3.3 3.5 87 0.8 NW 4 9 2 5 1013.1 1013.2 0.0
15/01:30am 4.5 2.6 2.8 89 0.7 ESE 2 7 1 4 1013.5 1013.6 0.0
15/01:00am 4.9 3.0 3.1 88 0.7 WSW 2 6 1 3 1013.5 1013.6 0.0
15/12:30am 6.2 4.9 4.0 86 0.9 CALM 0 0 0 0 1013.4 1013.5 0.0
15/12:00am 6.6 5.3 3.9 83 1.2 CALM 0 4 0 2 1013.8 1013.9 0.0
 
Date/Time
EST
Temp
°C
App
Temp
°C
Dew
Point
°C
Rel
Hum
%
Delta-T
°C
Wind Press
QNH
hPa
Press
MSL
hPa
Rain since
9am
mm
Dir  Spd
km/h
Gust
km/h
Spd
kts
Gust
kts
14/11:30pm 9.0 7.4 4.6 74 2.0 NNW 2 7 1 4 1013.9 1014.0 0.0
14/11:00pm 8.4 6.8 4.6 77 1.7 N 2 9 1 5 1014.0 1014.1 0.0
14/10:30pm 9.3 7.0 5.7 78 1.6 NNE 7 9 4 5 1013.8 1013.9 0.0
14/10:00pm 11.5 9.0 4.7 63 3.1 SW 7 13 4 7 1013.8 1013.9 0.0
14/09:30pm 7.6 4.9 5.6 87 0.9 S 9 13 5 7 1013.9 1014.0 0.0
14/09:00pm 10.5 7.9 6.3 75 2.0 SSW 9 13 5 7 1013.5 1013.6 0.0
14/08:30pm 10.6 9.6 7.3 80 1.6 E 2 9 1 5 1013.5 1013.6 0.0
14/08:00pm 12.9 10.8 6.5 65 3.1 WSW 7 9 4 5 1013.2 1013.3 0.0
14/07:30pm 12.5 10.9 7.8 73 2.3 N 6 7 3 4 1013.0 1013.1 0.0
14/07:00pm 12.2 10.4 7.1 71 2.5 SSW 6 11 3 6 1012.5 1012.6 0.0
14/06:30pm 14.3 12.8 8.5 68 2.9 SW 6 9 3 5 1012.4 1012.5 0.0
14/06:00pm 14.9 13.1 7.2 60 3.8 WNW 6 9 3 5 1012.1 1012.2 0.0
14/05:30pm 17.6 16.0 7.9 53 4.9 NNE 6 6 3 3 1011.7 1011.8 0.0
14/05:00pm 18.4 17.5 7.8 50 5.4 ENE 2 9 1 5 1011.5 1011.6 0.0
14/04:30pm 19.9 18.2 7.6 45 6.3 N 6 7 3 4 1011.4 1011.5 0.0
14/04:00pm 21.2 19.5 9.8 48 6.2 NNE 9 11 5 6 1011.4 1011.5 0.0
14/03:30pm 20.0 19.0 8.7 48 5.9 SSW 4 7 2 4 1011.5 1011.6 0.0
14/03:00pm 20.7 18.5 7.7 43 6.7 ESE 9 17 5 9 1011.5 1011.6 0.0
14/02:30pm 22.0 19.3 5.4 34 8.3 NE 9 13 5 7 1011.6 1011.7 0.0
14/02:00pm 22.2 18.5 4.3 31 8.8 ENE 13 19 7 10 1011.8 1011.9 0.0
14/01:30pm 22.8 18.7 6.1 34 8.5 NE 17 20 9 11 1012.0 1012.1 0.0
14/01:00pm 22.6 18.4 5.5 33 8.6 NE 17 20 9 11 1012.5 1012.6 0.0
14/12:30pm 22.5 19.0 5.4 33 8.6 NE 13 19 7 10 1013.3 1013.4 0.0
14/12:00pm 22.1 19.2 4.7 32 8.6 NE 9 17 5 9 1014.0 1014.1 0.0
14/11:30am 20.9 17.7 4.9 35 7.8 NNE 11 17 6 9 1014.6 1014.7 0.0
14/11:00am 18.9 16.9 8.8 52 5.3 NE 9 13 5 7 1015.3 1015.4 0.0
14/10:30am 16.3 14.5 9.5 64 3.5 ENE 9 11 5 6 1016.2 1016.2 0.0
14/10:00am 13.6 12.6 8.7 72 2.5 ESE 4 9 2 5 1016.7 1016.7 0.0
14/09:30am 10.3 9.8 7.9 85 1.2 CALM 0 0 0 0 1016.9 1016.9 0.0
14/09:00am 8.5 7.9 7.4 93 0.5 CALM 0 0 0 0 1017.2 1017.2 0.0
14/08:30am 6.9 6.2 6.8 99 0.0 CALM 0 0 0 0 1017.4 1017.4 0.0
14/08:00am 4.6 3.4 4.5 99 0.0 CALM 0 0 0 0 1017.6 1017.6 0.0
14/07:30am 2.7 0.4 2.6 99 0.0 SSW 4 9 2 5 1017.6 1017.6 0.0
14/07:00am 2.4 0.8 2.3 99 0.0 CALM 0 0 0 0 1017.5 1017.5 0.0
14/06:30am 2.6 0.3 2.5 99 0.0 S 4 7 2 4 1017.7 1017.7 0.0
14/06:00am 2.5 0.9 2.4 99 0.0 CALM 0 0 0 0 1017.6 1017.6 0.0
14/05:30am 2.5 -0.2 2.4 99 0.0 W 6 9 3 5 1017.6 1017.6 0.0
14/05:00am 2.6 1.0 2.5 99 0.0 CALM 0 0 0 0 1017.5 1017.5 0.0
14/04:30am 2.5 0.9 2.4 99 0.0 CALM 0 0 0 0 1017.8 1017.8 0.0
14/04:00am 2.9 1.4 2.8 99 0.0 CALM 0 0 0 0 1017.8 1017.8 0.0
14/03:30am 3.4 2.0 3.3 99 0.0 CALM 0 0 0 0 1018.1 1018.1 0.0
14/03:00am 3.5 2.1 3.4 99 0.0 CALM 0 0 0 0 1018.4 1018.4 0.0
14/02:30am 3.8 2.4 3.7 99 0.0 CALM 0 0 0 0 1018.6 1018.6 0.0
14/02:00am 3.9 2.5 3.8 99 0.0 CALM 0 0 0 0 1018.9 1018.9 0.0
14/01:30am 5.1 4.0 5.0 99 0.0 CALM 0 0 0 0 1019.0 1019.0 0.0
14/01:00am 5.9 3.8 5.8 99 0.0 W 6 7 3 4 1019.0 1019.0 0.0
14/12:30am 4.8 3.6 4.7 99 0.0 CALM 0 0 0 0 1019.3 1019.3 0.0
14/12:00am 5.6 4.5 5.3 98 0.1 CALM 0 0 0 0 1019.4 1019.4 0.0
 
Date/Time
EST
Temp
°C
App
Temp
°C
Dew
Point
°C
Rel
Hum
%
Delta-T
°C
Wind Press
QNH
hPa
Press
MSL
hPa
Rain since
9am
mm
Dir  Spd
km/h
Gust
km/h
Spd
kts
Gust
kts
13/11:30pm 6.9 6.2 6.8 99 0.0 CALM 0 0 0 0 1019.5 1019.5 0.0

Other Formats:

Comma delimited format used in spreadsheet applications
http://www.bom.gov.au/fwo/IDN60801/IDN60801.95931.axf

JavaScript Object Notation format (JSON) in row-major order
http://www.bom.gov.au/fwo/IDN60801/IDN60801.95931.json